createdAt,value
2017-02-23T00:00:40.479Z,22.81
2017-02-23T00:01:52.748Z,22.81
2017-02-23T00:03:05.897Z,22.81
2017-02-23T00:04:18.487Z,22.78
2017-02-23T00:05:31.633Z,22.84
2017-02-23T00:06:44.243Z,22.81
2017-02-23T00:07:57.390Z,22.81
2017-02-23T00:09:10.551Z,22.85
2017-02-23T00:10:23.131Z,22.88
2017-02-23T00:11:36.262Z,22.89
2017-02-23T00:12:48.864Z,22.84
2017-02-23T00:14:02.001Z,22.86
2017-02-23T00:15:15.131Z,22.93
2017-02-23T00:16:28.259Z,22.84
2017-02-23T00:17:41.401Z,22.88
2017-02-23T00:18:54.547Z,22.89
2017-02-23T00:20:07.709Z,22.97
2017-02-23T00:21:20.313Z,22.94
2017-02-23T00:22:33.457Z,22.99
2017-02-23T00:23:46.850Z,22.99
2017-02-23T00:25:00.006Z,22.89
2017-02-23T00:26:13.165Z,23.04
2017-02-23T00:27:25.757Z,22.99
2017-02-23T00:28:38.917Z,23.03
2017-02-23T00:29:51.188Z,23.12
2017-02-23T00:31:04.322Z,22.99
2017-02-23T00:32:30.899Z,22.96
2017-02-23T00:33:44.032Z,23.06
2017-02-23T00:34:57.178Z,23.09
2017-02-23T00:36:09.215Z,23.03
2017-02-23T00:37:35.802Z,23.11
2017-02-23T00:38:48.944Z,22.94
2017-02-23T00:40:02.106Z,23.03
2017-02-23T00:41:15.254Z,23.04
2017-02-23T00:42:28.393Z,23.09
2017-02-23T00:43:41.540Z,23.07
2017-02-23T00:44:54.684Z,23.11
2017-02-23T00:46:07.817Z,23.14
2017-02-23T00:47:20.406Z,23.11
2017-02-23T00:48:33.567Z,23.14
2017-02-23T00:49:46.966Z,23.09
2017-02-23T00:51:00.125Z,23.15
2017-02-23T00:52:13.280Z,23.12
2017-02-23T00:53:26.442Z,23.09
2017-02-23T00:54:39.581Z,23.14
2017-02-23T00:55:52.188Z,23.16
2017-02-23T00:57:05.353Z,23.12
2017-02-23T00:58:18.542Z,23.07
2017-02-23T00:59:31.687Z,23.07
2017-02-23T01:00:44.859Z,23.07
2017-02-23T01:01:58.042Z,23.01
2017-02-23T01:03:11.237Z,23.06
2017-02-23T01:04:37.284Z,23.03
2017-02-23T01:06:04.464Z,23
2017-02-23T01:07:17.598Z,23.09
2017-02-23T01:08:30.754Z,23.01
2017-02-23T01:09:44.024Z,23.01
2017-02-23T01:10:57.321Z,23.15
2017-02-23T01:13:37.950Z,23.11
2017-02-23T01:16:18.588Z,23.11
2017-02-23T01:17:31.732Z,23.12
2017-02-23T01:18:44.888Z,23.04
2017-02-23T01:19:58.080Z,23.09
2017-02-23T01:21:11.270Z,23.09
2017-02-23T01:22:24.027Z,23.09
2017-02-23T01:23:37.323Z,23.06
2017-02-23T01:24:50.522Z,22.97
2017-02-23T01:26:03.723Z,22.93
2017-02-23T01:27:16.305Z,22.97
2017-02-23T01:28:29.544Z,23.01
2017-02-23T01:29:42.832Z,23.04
2017-02-23T01:30:56.121Z,23
2017-02-23T01:32:08.275Z,23.01
2017-02-23T01:33:21.817Z,22.94
2017-02-23T01:34:35.106Z,22.96
2017-02-23T01:35:48.396Z,23.03
2017-02-23T01:37:01.702Z,23.06
2017-02-23T01:38:14.671Z,23.06
2017-02-23T01:39:27.966Z,23.11
2017-02-23T01:40:41.234Z,23.03
2017-02-23T01:41:54.513Z,23.11
2017-02-23T01:43:07.800Z,23.06
2017-02-23T01:44:19.683Z,23.15
2017-02-23T01:45:32.978Z,23.12
2017-02-23T01:46:46.252Z,23.04
2017-02-23T01:47:59.548Z,22.97
2017-02-23T01:49:13.082Z,22.97
2017-02-23T01:50:26.372Z,23.04
2017-02-23T01:51:39.658Z,23.03
2017-02-23T01:52:52.965Z,22.96
2017-02-23T01:54:06.246Z,23.06
2017-02-23T01:55:19.522Z,23.11
2017-02-23T01:56:32.841Z,23
2017-02-23T01:57:46.122Z,23.03
2017-02-23T01:58:59.423Z,22.97
2017-02-23T02:00:12.956Z,22.94
2017-02-23T02:01:26.236Z,22.97
2017-02-23T02:02:39.509Z,23.01
2017-02-23T02:03:52.819Z,23
2017-02-23T02:05:06.135Z,22.99
2017-02-23T02:06:19.410Z,22.96
2017-02-23T02:07:32.691Z,23.03
2017-02-23T02:08:45.406Z,22.96
2017-02-23T02:09:58.121Z,23.01
2017-02-23T02:11:11.439Z,22.89
2017-02-23T02:12:24.170Z,22.93
2017-02-23T02:13:37.368Z,23
2017-02-23T02:14:50.512Z,23.07
2017-02-23T02:16:03.657Z,23
2017-02-23T02:17:17.088Z,22.88
2017-02-23T02:18:30.235Z,22.85
2017-02-23T02:19:43.387Z,22.86
2017-02-23T02:20:55.977Z,22.82
2017-02-23T02:22:08.569Z,22.84
2017-02-23T02:23:21.711Z,22.86
2017-02-23T02:24:34.865Z,22.86
2017-02-23T02:25:47.449Z,22.89
2017-02-23T02:27:00.586Z,22.88
2017-02-23T02:28:12.911Z,22.99
2017-02-23T02:29:24.928Z,22.94
2017-02-23T02:30:38.090Z,22.96
2017-02-23T02:31:51.221Z,22.84
2017-02-23T02:33:04.614Z,22.89
2017-02-23T02:34:17.759Z,22.91
2017-02-23T02:35:30.917Z,22.88
2017-02-23T02:36:44.088Z,22.91
2017-02-23T02:37:57.242Z,22.86
2017-02-23T02:39:10.374Z,22.89
2017-02-23T02:40:23.539Z,22.91
2017-02-23T02:41:36.689Z,22.81
2017-02-23T02:43:03.838Z,22.85
2017-02-23T02:44:16.433Z,22.97
2017-02-23T02:45:29.595Z,22.93
2017-02-23T02:46:42.744Z,22.91
2017-02-23T02:47:55.883Z,22.97
2017-02-23T02:49:09.360Z,22.89
2017-02-23T02:50:22.504Z,22.88
2017-02-23T02:51:35.657Z,22.85
2017-02-23T02:52:48.802Z,22.93
2017-02-23T02:54:02.187Z,22.99
2017-02-23T02:55:15.346Z,22.82
2017-02-23T02:56:28.484Z,22.88
2017-02-23T02:57:41.630Z,22.88
2017-02-23T02:58:54.777Z,22.99
2017-02-23T03:00:07.923Z,22.86
2017-02-23T03:01:34.525Z,22.85
2017-02-23T03:02:47.664Z,22.85
2017-02-23T03:04:00.792Z,22.88
2017-02-23T03:05:13.934Z,22.85
2017-02-23T03:06:40.510Z,22.84
2017-02-23T03:07:53.652Z,22.84
2017-02-23T03:09:07.082Z,22.93
2017-02-23T03:10:19.116Z,22.93
2017-02-23T03:11:32.254Z,23.01
2017-02-23T03:12:45.382Z,22.96
2017-02-23T03:13:57.986Z,22.89
2017-02-23T03:15:11.380Z,22.84
2017-02-23T03:16:24.538Z,22.86
2017-02-23T03:17:37.700Z,22.88
2017-02-23T03:18:50.831Z,22.84
2017-02-23T03:20:03.958Z,22.89
2017-02-23T03:21:17.113Z,22.84
2017-02-23T03:22:30.246Z,22.88
2017-02-23T03:23:43.401Z,22.86
2017-02-23T03:24:56.544Z,22.97
2017-02-23T03:26:09.683Z,22.89
2017-02-23T03:27:22.272Z,22.94
2017-02-23T03:28:35.410Z,22.86
2017-02-23T03:29:48.543Z,22.88
2017-02-23T03:31:01.702Z,22.84
2017-02-23T03:32:15.139Z,22.91
2017-02-23T03:33:27.728Z,22.86
2017-02-23T03:34:40.864Z,22.85
2017-02-23T03:35:54.002Z,22.79
2017-02-23T03:37:07.153Z,22.75
2017-02-23T03:38:19.738Z,22.61
2017-02-23T03:39:32.869Z,22.7
2017-02-23T03:40:46.015Z,22.78
2017-02-23T03:41:59.164Z,22.85
2017-02-23T03:43:12.697Z,22.89
2017-02-23T03:44:25.421Z,22.88
2017-02-23T03:45:38.695Z,22.93
2017-02-23T03:46:51.976Z,23.03
2017-02-23T03:48:05.260Z,22.99
2017-02-23T03:49:18.533Z,23.06
2017-02-23T03:50:31.817Z,23.09
2017-02-23T03:51:44.537Z,23.03
2017-02-23T03:52:57.829Z,22.99
2017-02-23T03:54:11.144Z,22.91
2017-02-23T03:55:23.880Z,22.85
2017-02-23T03:56:37.149Z,22.88
2017-02-23T03:58:04.423Z,22.99
2017-02-23T03:59:17.139Z,22.91
2017-02-23T04:00:30.408Z,23.01
2017-02-23T04:01:43.693Z,23
2017-02-23T04:03:10.392Z,22.97
2017-02-23T04:04:23.102Z,22.99
2017-02-23T04:05:36.436Z,22.97
2017-02-23T04:06:49.718Z,22.96
2017-02-23T04:08:03.007Z,23.06
2017-02-23T04:09:30.524Z,22.93
2017-02-23T04:10:43.800Z,22.89
2017-02-23T04:11:57.069Z,22.75
2017-02-23T04:13:10.343Z,22.79
2017-02-23T04:14:23.618Z,22.82
2017-02-23T04:15:36.898Z,22.79
2017-02-23T04:16:50.177Z,22.82
2017-02-23T04:18:02.929Z,22.75
2017-02-23T04:19:16.213Z,22.85
2017-02-23T04:20:29.219Z,22.85
2017-02-23T04:21:42.500Z,22.81
2017-02-23T04:22:55.805Z,22.75
2017-02-23T04:24:23.330Z,22.81
2017-02-23T04:25:50.582Z,22.78
2017-02-23T04:27:03.858Z,22.75
2017-02-23T04:28:15.994Z,22.72
2017-02-23T04:29:29.261Z,22.75
2017-02-23T04:30:42.534Z,22.74
2017-02-23T04:31:55.241Z,22.7
2017-02-23T04:33:07.952Z,22.67
2017-02-23T04:34:20.670Z,22.72
2017-02-23T04:35:34.211Z,22.66
2017-02-23T04:36:47.494Z,22.67
2017-02-23T04:38:00.764Z,22.72
2017-02-23T04:39:13.506Z,22.66
2017-02-23T04:40:26.206Z,22.67
2017-02-23T04:41:39.484Z,22.75
2017-02-23T04:42:52.759Z,22.75
2017-02-23T04:44:06.046Z,22.7
2017-02-23T04:45:18.185Z,22.63
2017-02-23T04:46:30.890Z,22.66
2017-02-23T04:47:44.158Z,22.7
2017-02-23T04:48:56.858Z,22.72
2017-02-23T04:50:10.135Z,22.59
2017-02-23T04:51:23.728Z,22.61
2017-02-23T04:52:36.998Z,22.61
2017-02-23T04:53:50.289Z,22.63
2017-02-23T04:55:02.989Z,22.6
2017-02-23T04:56:15.141Z,22.6
2017-02-23T04:57:28.407Z,22.52
2017-02-23T04:58:41.708Z,22.59
2017-02-23T04:59:54.985Z,22.7
2017-02-23T05:01:08.253Z,22.69
2017-02-23T05:02:20.962Z,22.74
2017-02-23T05:03:33.685Z,22.84
2017-02-23T05:04:46.974Z,22.88
2017-02-23T05:06:00.258Z,22.82
2017-02-23T05:07:12.975Z,22.84
2017-02-23T05:08:39.964Z,22.91
2017-02-23T05:09:52.661Z,22.89
2017-02-23T05:11:19.923Z,22.86
2017-02-23T05:12:33.209Z,22.84
2017-02-23T05:13:45.918Z,22.64
2017-02-23T05:14:59.204Z,22.69
2017-02-23T05:16:12.476Z,22.66
2017-02-23T05:17:25.746Z,22.72
2017-02-23T05:18:53.802Z,22.59
2017-02-23T05:20:07.072Z,22.59
2017-02-23T05:21:19.775Z,22.57
2017-02-23T05:22:33.305Z,22.56
2017-02-23T05:23:46.569Z,22.57
2017-02-23T05:24:59.853Z,22.6
2017-02-23T05:26:13.146Z,22.6
2017-02-23T05:27:26.453Z,22.54
2017-02-23T05:28:39.986Z,22.59
2017-02-23T05:29:52.696Z,22.59
2017-02-23T05:31:05.993Z,22.57
2017-02-23T05:32:19.268Z,22.6
2017-02-23T05:33:31.978Z,22.6
2017-02-23T05:34:45.517Z,22.61
2017-02-23T05:35:58.802Z,22.63
2017-02-23T05:37:12.085Z,22.63
2017-02-23T05:38:24.799Z,22.48
2017-02-23T05:39:38.372Z,22.51
2017-02-23T05:40:51.639Z,22.46
2017-02-23T05:42:04.904Z,22.45
2017-02-23T05:43:18.209Z,22.45
2017-02-23T05:44:30.935Z,22.52
2017-02-23T05:45:44.501Z,22.59
2017-02-23T05:47:11.755Z,22.59
2017-02-23T05:48:25.032Z,22.66
2017-02-23T05:49:38.607Z,22.61
2017-02-23T05:50:51.927Z,22.63
2017-02-23T05:52:05.220Z,22.66
2017-02-23T05:53:17.924Z,22.57
2017-02-23T05:54:31.202Z,22.57
2017-02-23T05:55:44.493Z,22.54
2017-02-23T05:57:11.753Z,22.51
2017-02-23T05:58:24.977Z,22.49
2017-02-23T05:59:37.555Z,22.59
2017-02-23T06:00:50.123Z,22.63
2017-02-23T06:02:02.711Z,22.64
2017-02-23T06:03:15.851Z,22.69
2017-02-23T06:04:29.011Z,22.74
2017-02-23T06:05:42.145Z,22.66
2017-02-23T06:06:55.280Z,22.75
2017-02-23T06:08:07.862Z,22.64
2017-02-23T06:09:20.993Z,22.63
2017-02-23T06:10:34.144Z,22.59
2017-02-23T06:11:47.293Z,22.6
2017-02-23T06:13:00.436Z,22.63
2017-02-23T06:14:13.021Z,22.51
2017-02-23T06:15:26.168Z,22.57
2017-02-23T06:16:39.575Z,22.56
2017-02-23T06:18:06.719Z,22.51
2017-02-23T06:19:19.855Z,22.48
2017-02-23T06:20:32.982Z,22.52
2017-02-23T06:21:45.563Z,22.46
2017-02-23T06:22:58.734Z,22.46
2017-02-23T06:24:11.870Z,22.46
2017-02-23T06:25:24.477Z,22.38
2017-02-23T06:26:37.615Z,22.45
2017-02-23T06:27:50.203Z,22.52
2017-02-23T06:29:02.776Z,22.49
2017-02-23T06:30:29.927Z,22.49
2017-02-23T06:31:43.078Z,22.54
2017-02-23T06:32:56.225Z,22.48
2017-02-23T06:34:09.362Z,22.44
2017-02-23T06:35:22.499Z,22.48
2017-02-23T06:36:35.641Z,22.45
2017-02-23T06:37:48.973Z,22.45
2017-02-23T06:39:01.547Z,22.54
2017-02-23T06:40:14.137Z,22.52
2017-02-23T06:41:27.265Z,22.48
2017-02-23T06:42:40.485Z,22.61
2017-02-23T06:43:54.062Z,22.63
2017-02-23T06:45:07.343Z,22.57
2017-02-23T06:46:20.621Z,22.67
2017-02-23T06:47:33.902Z,22.61
2017-02-23T06:48:47.195Z,22.64
2017-02-23T06:50:00.493Z,22.63
2017-02-23T06:51:13.762Z,22.54
2017-02-23T06:52:27.043Z,22.52
2017-02-23T06:53:40.321Z,22.48
2017-02-23T06:54:53.280Z,22.51
2017-02-23T06:56:06.555Z,22.49
2017-02-23T06:57:19.826Z,22.54
2017-02-23T06:58:31.986Z,22.51
2017-02-23T06:59:45.284Z,22.54
2017-02-23T07:00:58.583Z,22.56
2017-02-23T07:02:11.292Z,22.69
2017-02-23T07:03:23.988Z,22.67
2017-02-23T07:04:37.270Z,22.64
2017-02-23T07:05:50.568Z,22.7
2017-02-23T07:07:03.861Z,22.69
2017-02-23T07:08:17.133Z,22.61
2017-02-23T07:09:31.039Z,22.57
2017-02-23T07:10:44.336Z,22.6
2017-02-23T07:11:57.621Z,22.59
2017-02-23T07:13:10.901Z,22.52
2017-02-23T07:14:24.178Z,22.49
2017-02-23T07:15:36.884Z,22.49
2017-02-23T07:16:50.447Z,22.46
2017-02-23T07:18:03.727Z,22.52
2017-02-23T07:19:15.885Z,22.46
2017-02-23T07:20:29.173Z,22.52
2017-02-23T07:21:42.754Z,22.52
2017-02-23T07:22:56.025Z,22.48
2017-02-23T07:24:09.317Z,22.51
2017-02-23T07:25:22.015Z,22.59
2017-02-23T07:26:35.311Z,22.57
2017-02-23T07:27:48.507Z,22.59
2017-02-23T07:29:01.644Z,22.57
2017-02-23T07:30:14.776Z,22.56
2017-02-23T07:31:27.936Z,22.56
2017-02-23T07:32:41.085Z,22.61
2017-02-23T07:33:53.655Z,22.57
2017-02-23T07:35:06.240Z,22.6
2017-02-23T07:36:19.390Z,22.63
2017-02-23T07:37:31.972Z,22.66
2017-02-23T07:38:45.106Z,22.67
2017-02-23T07:39:57.696Z,22.74
2017-02-23T07:41:10.300Z,22.78
2017-02-23T07:42:23.440Z,22.69
2017-02-23T07:43:36.599Z,22.66
2017-02-23T07:44:48.623Z,22.66
2017-02-23T07:46:01.200Z,22.69
2017-02-23T07:47:13.232Z,22.67
2017-02-23T07:48:26.376Z,22.75
2017-02-23T07:49:39.752Z,22.74
2017-02-23T07:50:52.879Z,22.7
2017-02-23T07:52:06.032Z,22.72
2017-02-23T07:53:19.164Z,22.67
2017-02-23T07:54:32.608Z,22.78
2017-02-23T07:55:45.743Z,22.67
2017-02-23T07:57:12.333Z,22.67
2017-02-23T07:58:25.462Z,22.6
2017-02-23T07:59:38.610Z,22.61
2017-02-23T08:00:51.754Z,22.63
2017-02-23T08:02:04.896Z,22.64
2017-02-23T08:03:32.033Z,22.63
2017-02-23T08:04:45.464Z,22.66
2017-02-23T08:05:58.593Z,22.67
2017-02-23T08:07:11.750Z,22.66
2017-02-23T08:08:24.891Z,22.74
2017-02-23T08:09:37.480Z,22.67
2017-02-23T08:11:04.926Z,22.61
2017-02-23T08:12:17.507Z,22.49
2017-02-23T08:13:30.653Z,22.49
2017-02-23T08:14:44.093Z,22.48
2017-02-23T08:15:57.222Z,22.45
2017-02-23T08:17:10.378Z,22.44
2017-02-23T08:18:37.523Z,22.41
2017-02-23T08:19:50.912Z,22.38
2017-02-23T08:21:04.078Z,22.36
2017-02-23T08:22:17.235Z,22.26
2017-02-23T08:23:30.384Z,22.29
2017-02-23T08:24:42.983Z,22.2
2017-02-23T08:25:56.377Z,22.31
2017-02-23T08:27:09.511Z,22.29
2017-02-23T08:28:22.094Z,22.26
2017-02-23T08:29:35.251Z,22.19
2017-02-23T08:31:01.834Z,22.17
2017-02-23T08:32:14.990Z,22.26
2017-02-23T08:33:28.141Z,22.23
2017-02-23T08:34:41.291Z,22.2
2017-02-23T08:35:54.146Z,22.19
2017-02-23T08:38:33.878Z,22.15
2017-02-23T08:39:47.019Z,22.12
2017-02-23T08:41:00.152Z,22.14
2017-02-23T08:42:12.771Z,22.15
2017-02-23T08:43:25.339Z,22.11
2017-02-23T08:44:37.926Z,22.17
2017-02-23T08:45:51.079Z,22.11
2017-02-23T08:47:03.920Z,22.14
2017-02-23T08:48:16.514Z,22.14
2017-02-23T08:49:29.678Z,22.12
2017-02-23T08:50:42.278Z,22.19
2017-02-23T08:51:55.667Z,22.15
2017-02-23T08:53:22.827Z,22.19
2017-02-23T08:54:35.983Z,22.06
2017-02-23T08:55:49.111Z,22.14
2017-02-23T08:57:02.497Z,22.14
2017-02-23T08:58:14.566Z,22.21
2017-02-23T08:59:27.284Z,22.15
2017-02-23T09:00:40.562Z,22.12
2017-02-23T09:01:53.833Z,22.09
2017-02-23T09:03:07.459Z,22.19
2017-02-23T09:04:20.173Z,22.23
2017-02-23T09:05:33.465Z,22.23
2017-02-23T09:06:46.743Z,22.27
2017-02-23T09:08:00.035Z,22.3
2017-02-23T09:09:13.326Z,22.35
2017-02-23T09:10:26.059Z,22.23
2017-02-23T09:11:39.357Z,22.26
2017-02-23T09:12:52.641Z,22.23
2017-02-23T09:14:19.892Z,22.3
2017-02-23T09:15:47.161Z,22.33
2017-02-23T09:17:00.454Z,22.49
2017-02-23T09:18:27.712Z,22.41
2017-02-23T09:19:40.418Z,22.46
2017-02-23T09:20:53.702Z,22.49
2017-02-23T09:22:07.000Z,22.54
2017-02-23T09:23:20.285Z,22.48
2017-02-23T09:24:33.559Z,22.54
2017-02-23T09:25:46.283Z,22.52
2017-02-23T09:26:59.553Z,22.51
2017-02-23T09:28:12.824Z,22.42
2017-02-23T09:29:26.351Z,22.41
2017-02-23T09:30:39.616Z,22.44
2017-02-23T09:31:52.325Z,22.45
2017-02-23T09:34:32.869Z,22.36
2017-02-23T09:35:46.158Z,22.38
2017-02-23T09:36:59.443Z,22.27
2017-02-23T09:38:12.734Z,22.33
2017-02-23T09:39:26.276Z,22.31
2017-02-23T09:40:39.574Z,22.29
2017-02-23T09:41:52.848Z,22.3
2017-02-23T09:43:06.053Z,22.29
2017-02-23T09:44:19.190Z,22.21
2017-02-23T09:45:32.329Z,22.23
2017-02-23T09:46:45.472Z,22.3
2017-02-23T09:47:58.629Z,22.39
2017-02-23T09:49:11.779Z,22.41
2017-02-23T09:50:24.931Z,22.39
2017-02-23T09:51:38.073Z,22.41
2017-02-23T09:52:51.244Z,22.42
2017-02-23T09:54:04.398Z,22.39
2017-02-23T09:55:16.983Z,22.45
2017-02-23T09:56:30.366Z,22.45
2017-02-23T09:57:43.518Z,22.48
2017-02-23T09:58:56.663Z,22.45
2017-02-23T10:00:09.786Z,22.51
2017-02-23T10:01:37.172Z,22.6
2017-02-23T10:02:49.767Z,22.57
2017-02-23T10:04:02.946Z,22.57
2017-02-23T10:05:14.979Z,22.64
2017-02-23T10:06:28.444Z,22.66
2017-02-23T10:07:41.579Z,22.72
2017-02-23T10:08:54.739Z,22.78
2017-02-23T10:10:07.884Z,22.78
2017-02-23T10:11:20.457Z,22.82
2017-02-23T10:12:33.599Z,22.88
2017-02-23T10:13:46.751Z,22.86
2017-02-23T10:14:59.902Z,22.93
2017-02-23T10:16:13.044Z,22.86
2017-02-23T10:17:26.492Z,22.93
2017-02-23T10:18:39.652Z,23.03
2017-02-23T10:19:52.241Z,22.93
2017-02-23T10:21:05.381Z,23
2017-02-23T10:22:32.768Z,23.14
2017-02-23T10:23:59.917Z,23.14
2017-02-23T10:25:11.928Z,23.11
2017-02-23T10:26:25.092Z,23.21
2017-02-23T10:27:37.116Z,23.22
2017-02-23T10:28:50.271Z,23.29
2017-02-23T10:30:03.461Z,23.34
2017-02-23T10:31:15.496Z,23.42
2017-02-23T10:32:28.647Z,23.42
2017-02-23T10:33:41.481Z,23.42
2017-02-23T10:36:21.778Z,23.47
2017-02-23T10:37:34.910Z,23.41
2017-02-23T10:38:48.061Z,23.45
2017-02-23T10:40:14.112Z,23.56
2017-02-23T10:41:26.696Z,23.67
2017-02-23T10:42:39.839Z,23.62
2017-02-23T10:45:19.602Z,23.72
2017-02-23T10:46:32.737Z,23.74
2017-02-23T10:48:00.140Z,23.72
2017-02-23T10:49:12.725Z,23.72
2017-02-23T10:50:25.313Z,23.77
2017-02-23T10:51:52.453Z,23.84
2017-02-23T10:53:05.605Z,23.87
2017-02-23T10:54:18.219Z,23.94
2017-02-23T10:55:31.361Z,23.99
2017-02-23T10:56:44.521Z,23.94
2017-02-23T10:57:57.818Z,24.06
2017-02-23T10:59:24.496Z,24.11
2017-02-23T11:00:37.802Z,24.12
2017-02-23T11:01:51.233Z,24.19
2017-02-23T11:03:03.975Z,24.21
2017-02-23T11:04:17.249Z,24.23
2017-02-23T11:05:30.581Z,24.23
2017-02-23T11:06:57.365Z,24.19
2017-02-23T11:08:10.919Z,24.27
2017-02-23T11:09:24.142Z,24.34
2017-02-23T11:10:37.292Z,24.33
2017-02-23T11:11:49.884Z,24.36
2017-02-23T11:13:03.102Z,24.49
2017-02-23T11:14:16.635Z,24.51
2017-02-23T11:15:29.351Z,24.55
2017-02-23T11:16:42.668Z,24.55
2017-02-23T11:17:55.461Z,24.55
2017-02-23T11:19:36.797Z,24.64
2017-02-23T11:20:49.760Z,24.68
2017-02-23T11:22:03.212Z,24.61
2017-02-23T11:23:29.458Z,24.75
2017-02-23T11:24:42.911Z,24.71
2017-02-23T11:25:56.389Z,24.77
2017-02-23T11:27:08.695Z,24.9
2017-02-23T11:28:22.154Z,24.83
2017-02-23T11:29:35.632Z,24.92
2017-02-23T11:30:49.087Z,24.94
2017-02-23T11:32:02.554Z,25.02
2017-02-23T11:33:14.838Z,25.02
2017-02-23T11:34:28.292Z,25.04
2017-02-23T11:35:41.901Z,25.02
2017-02-23T11:36:55.377Z,25.01
2017-02-23T11:38:08.842Z,25.07
2017-02-23T11:39:22.321Z,25.14
2017-02-23T11:40:35.204Z,25.08
2017-02-23T11:43:15.743Z,25.23
2017-02-23T11:44:28.649Z,25.34
2017-02-23T11:45:42.362Z,25.35
2017-02-23T11:46:55.835Z,25.34
2017-02-23T11:48:09.288Z,25.34
2017-02-23T11:49:22.750Z,25.38
2017-02-23T11:50:36.197Z,25.46
2017-02-23T11:51:49.821Z,25.48
2017-02-23T11:53:16.497Z,25.59
2017-02-23T11:54:29.208Z,25.63
2017-02-23T11:55:42.518Z,25.71
2017-02-23T11:56:54.920Z,25.74
2017-02-23T11:58:08.190Z,25.74
2017-02-23T11:59:21.352Z,25.79
2017-02-23T12:00:33.938Z,25.86
2017-02-23T12:01:47.084Z,25.93
2017-02-23T12:02:59.687Z,25.96
2017-02-23T12:04:12.819Z,26.11
2017-02-23T12:05:25.996Z,26.09
2017-02-23T12:06:39.138Z,26.09
2017-02-23T12:07:52.591Z,26.16
2017-02-23T12:09:05.734Z,26.13
2017-02-23T12:10:32.889Z,26.17
2017-02-23T12:11:45.501Z,26.24
2017-02-23T12:14:26.056Z,26.29
2017-02-23T12:15:39.203Z,26.27
2017-02-23T12:16:51.228Z,26.29
2017-02-23T12:18:04.369Z,26.23
2017-02-23T12:19:16.949Z,26.27
2017-02-23T12:20:44.109Z,26.27
2017-02-23T12:21:57.257Z,26.46
2017-02-23T12:23:09.851Z,26.49
2017-02-23T12:24:23.007Z,26.51
2017-02-23T12:27:03.299Z,26.65
2017-02-23T12:28:16.443Z,26.72
2017-02-23T12:29:57.602Z,26.79
2017-02-23T12:31:10.772Z,26.86
2017-02-23T12:32:23.923Z,27.02
2017-02-23T12:33:37.337Z,27.21
2017-02-23T12:35:03.935Z,27.55
2017-02-23T12:36:17.092Z,27.72
2017-02-23T12:38:57.682Z,27.86
2017-02-23T12:40:10.850Z,27.91
2017-02-23T12:41:23.991Z,28.14
2017-02-23T12:42:37.178Z,28.17
2017-02-23T12:43:49.886Z,28.24
2017-02-23T12:45:02.907Z,28.33
2017-02-23T12:46:29.618Z,28.43
2017-02-23T12:47:42.897Z,28.3
2017-02-23T12:49:24.128Z,28.57
2017-02-23T12:50:37.405Z,28.61
2017-02-23T12:51:50.137Z,28.69
2017-02-23T12:53:03.429Z,28.72
2017-02-23T12:54:16.718Z,28.85
2017-02-23T12:55:30.030Z,29.07
2017-02-23T12:56:43.358Z,29.11
2017-02-23T12:57:55.503Z,29.18
2017-02-23T12:59:07.655Z,29.42
2017-02-23T13:00:34.931Z,29.51
2017-02-23T13:01:47.656Z,29.55
2017-02-23T13:03:00.957Z,29.63
2017-02-23T13:04:13.710Z,29.76
2017-02-23T13:05:40.972Z,30
2017-02-23T13:07:08.236Z,30.08
2017-02-23T13:08:20.958Z,30.23
2017-02-23T13:09:34.247Z,30.51
2017-02-23T13:10:47.538Z,30.82
2017-02-23T13:12:00.811Z,30.6
2017-02-23T13:13:13.528Z,30.51
2017-02-23T13:14:41.044Z,30.23
2017-02-23T13:15:54.356Z,30.13
2017-02-23T13:17:07.641Z,30.13
2017-02-23T13:18:20.362Z,30.26
2017-02-23T13:19:47.620Z,30.44
2017-02-23T13:21:00.899Z,30.3
2017-02-23T13:22:13.618Z,30.13
2017-02-23T13:23:26.930Z,30.28
2017-02-23T13:24:40.214Z,30.37
2017-02-23T13:25:53.517Z,30.3
2017-02-23T13:27:06.809Z,30.48
2017-02-23T13:28:20.093Z,30.79
2017-02-23T13:29:33.385Z,30.94
2017-02-23T13:30:46.659Z,31.03
2017-02-23T13:31:59.376Z,31.22
2017-02-23T13:33:12.675Z,31.28
2017-02-23T13:34:25.395Z,31.15
2017-02-23T13:35:38.682Z,31.16
2017-02-23T13:36:52.015Z,31.22
2017-02-23T13:38:05.323Z,31.27
2017-02-23T13:39:18.615Z,31.27
2017-02-23T13:40:31.352Z,31.35
2017-02-23T13:41:44.672Z,31.49
2017-02-23T13:42:58.004Z,31.46
2017-02-23T13:44:11.313Z,31.42
2017-02-23T13:46:51.601Z,31.45
2017-02-23T13:49:31.717Z,31.57
2017-02-23T13:50:45.059Z,31.62
2017-02-23T13:51:57.830Z,31.45
2017-02-23T13:53:10.608Z,31.42
2017-02-23T13:54:23.918Z,31.6
2017-02-23T13:55:37.195Z,31.84
2017-02-23T13:56:50.492Z,31.91
2017-02-23T13:58:04.053Z,31.92
2017-02-23T13:59:17.347Z,31.78
2017-02-23T14:00:44.653Z,31.72
2017-02-23T14:01:58.234Z,31.75
2017-02-23T14:03:11.528Z,31.82
2017-02-23T14:04:24.830Z,31.9
2017-02-23T14:05:37.563Z,31.85
2017-02-23T14:06:50.882Z,31.72
2017-02-23T14:08:04.368Z,31.91
2017-02-23T14:09:17.093Z,31.98
2017-02-23T14:10:30.372Z,32.03
2017-02-23T14:11:43.651Z,32.02
2017-02-23T14:12:56.879Z,31.69
2017-02-23T14:14:10.037Z,31.53
2017-02-23T14:15:23.237Z,31.4
2017-02-23T14:16:36.384Z,31.54
2017-02-23T14:17:49.538Z,31.85
2017-02-23T14:19:02.703Z,31.9
2017-02-23T14:20:14.743Z,32.06
2017-02-23T14:21:27.899Z,32.25
2017-02-23T14:22:41.080Z,32.39
2017-02-23T14:24:08.242Z,32.53
2017-02-23T14:25:21.380Z,32.56
2017-02-23T14:26:34.544Z,32.46
2017-02-23T14:27:47.702Z,32.53
2017-02-23T14:29:00.850Z,32.41
2017-02-23T14:30:14.005Z,32.46
2017-02-23T14:31:41.161Z,32.47
2017-02-23T14:33:08.310Z,32.66
2017-02-23T14:34:21.204Z,32.84
2017-02-23T14:35:48.361Z,32.9
2017-02-23T14:37:01.502Z,33
2017-02-23T14:38:14.109Z,32.95
2017-02-23T14:39:27.559Z,32.78
2017-02-23T14:40:40.733Z,32.59
2017-02-23T14:42:08.003Z,32.77
2017-02-23T14:43:20.036Z,32.77
2017-02-23T14:44:34.795Z,32.77
2017-02-23T14:45:48.173Z,32.78
2017-02-23T14:47:01.381Z,32.62
2017-02-23T14:48:14.397Z,32.43
2017-02-23T14:49:27.823Z,32.32
2017-02-23T14:50:56.497Z,31.72
2017-02-23T14:52:09.095Z,31.87
2017-02-23T14:53:21.684Z,31.79
2017-02-23T14:54:34.828Z,31.97
2017-02-23T14:55:47.983Z,32.12
2017-02-23T14:57:01.120Z,32.27
2017-02-23T14:58:14.276Z,32.1
2017-02-23T14:59:27.434Z,32.1
2017-02-23T15:00:40.583Z,32.05
2017-02-23T15:01:53.769Z,32.31
2017-02-23T15:03:06.921Z,32.4
2017-02-23T15:04:19.509Z,32.43
2017-02-23T15:06:00.112Z,32.49
2017-02-23T15:07:13.250Z,32.41
2017-02-23T15:08:26.899Z,32.24
2017-02-23T15:09:39.497Z,31.87
2017-02-23T15:10:52.937Z,31.67
2017-02-23T15:12:05.525Z,31.38
2017-02-23T15:13:18.123Z,31.13
2017-02-23T15:14:45.285Z,30.81
2017-02-23T15:15:58.438Z,30.88
2017-02-23T15:17:11.599Z,30.78
2017-02-23T15:18:24.199Z,30.7
2017-02-23T15:20:05.361Z,30.86
2017-02-23T15:21:17.942Z,30.98
2017-02-23T15:22:30.541Z,31.07
2017-02-23T15:23:43.686Z,31.05
2017-02-23T15:24:56.837Z,31.03
2017-02-23T15:26:09.979Z,31.01
2017-02-23T15:27:22.278Z,31.13
2017-02-23T15:28:35.429Z,31.04
2017-02-23T15:29:48.591Z,31.12
2017-02-23T15:31:15.197Z,31.07
2017-02-23T15:32:28.107Z,31.12
2017-02-23T15:33:41.250Z,30.94
2017-02-23T15:34:54.409Z,31.05
2017-02-23T15:36:08.541Z,31.09
2017-02-23T15:37:21.841Z,31.13
2017-02-23T15:38:34.448Z,31.19
2017-02-23T15:39:47.605Z,31.09
2017-02-23T15:41:00.195Z,31.01
2017-02-23T15:42:27.351Z,30.96
2017-02-23T15:43:40.506Z,31.01
2017-02-23T15:44:53.667Z,30.9
2017-02-23T15:46:06.261Z,31.13
2017-02-23T15:47:32.854Z,31.01
2017-02-23T15:48:46.011Z,31.09
2017-02-23T15:49:59.169Z,31.12
2017-02-23T15:51:12.339Z,31.18
2017-02-23T15:52:24.951Z,30.97
2017-02-23T15:53:38.125Z,30.98
2017-02-23T15:54:51.445Z,30.97
2017-02-23T15:56:04.591Z,31.1
2017-02-23T15:57:17.180Z,31.09
2017-02-23T15:58:30.340Z,31.01
2017-02-23T15:59:43.499Z,30.9
2017-02-23T16:00:56.644Z,30.59
2017-02-23T16:02:09.793Z,30.64
2017-02-23T16:03:21.817Z,30.63
2017-02-23T16:04:35.214Z,30.7
2017-02-23T16:05:48.361Z,30.67
2017-02-23T16:07:01.523Z,30.72
2017-02-23T16:08:14.127Z,30.88
2017-02-23T16:09:26.755Z,30.93
2017-02-23T16:10:39.896Z,31.07
2017-02-23T16:11:53.056Z,31.15
2017-02-23T16:13:06.205Z,31.1
2017-02-23T16:14:37.307Z,31.1
2017-02-23T16:15:50.516Z,31.05
2017-02-23T16:17:05.352Z,31.07
2017-02-23T16:19:59.173Z,31.1